Time;durP1;ratioP1;P1;durP2;ratioP2;P2;SDS_P1;SDS_P2;PMS_P1;PMS_P2;Temp;Humidity;BMP_temperature;BMP_pressure;BME280_temperature;BME280_humidity;BME280_pressure;Samples;Min_cycle;Max_cycle;Signal;HPM_P1;HPM_P2
2021/06/10 00:00:51;;;;;;;15.67;14.07;;;17.20;99.90;;;;;;4996758;28;20640;-64
2021/06/10 00:03:18;;;;;;;16.80;13.83;;;17.10;99.90;;;;;;4996881;28;20632;-64
2021/06/10 00:05:45;;;;;;;17.20;14.63;;;17.10;99.90;;;;;;4996526;28;20571;-64
2021/06/10 00:08:11;;;;;;;14.50;13.00;;;17.10;99.90;;;;;;4996725;28;20672;-65
2021/06/10 00:10:41;;;;;;;15.03;13.40;;;17.10;99.90;;;;;;4996564;28;20590;-65
2021/06/10 00:13:07;;;;;;;21.40;14.90;;;17.10;99.90;;;;;;4996400;28;20595;-65
2021/06/10 00:15:36;;;;;;;25.63;13.73;;;17.00;99.90;;;;;;4995951;28;20597;-65
2021/06/10 00:18:04;;;;;;;17.30;15.60;;;17.00;99.90;;;;;;4995803;28;20630;-65
2021/06/10 00:20:33;;;;;;;15.93;14.33;;;17.00;99.90;;;;;;4996050;28;20624;-65
2021/06/10 00:22:59;;;;;;;16.67;13.00;;;17.00;99.90;;;;;;4995448;28;20644;-65
2021/06/10 00:25:28;;;;;;;16.97;15.20;;;17.00;99.90;;;;;;4995746;28;20601;-65
2021/06/10 00:27:55;;;;;;;17.67;15.47;;;16.90;99.90;;;;;;4995641;28;20583;-65
2021/06/10 00:30:21;;;;;;;16.33;14.83;;;16.90;99.90;;;;;;4995832;28;20625;-65
2021/06/10 00:32:50;;;;;;;20.10;16.70;;;16.90;99.90;;;;;;4994363;28;20637;-65
2021/06/10 00:35:18;;;;;;;17.47;15.70;;;16.90;99.90;;;;;;4977971;28;20640;-65
2021/06/10 00:37:45;;;;;;;16.83;15.23;;;16.90;99.90;;;;;;4995494;28;20594;-65
2021/06/10 00:40:12;;;;;;;19.70;17.70;;;16.90;99.90;;;;;;4995477;28;20628;-65
2021/06/10 00:42:39;;;;;;;18.57;16.60;;;17.00;99.90;;;;;;4995264;28;21235;-65
2021/06/10 00:45:08;;;;;;;20.57;16.20;;;16.90;99.90;;;;;;4995272;28;21199;-65
2021/06/10 00:47:35;;;;;;;20.47;18.43;;;16.90;99.90;;;;;;4995428;28;20590;-65
2021/06/10 00:50:03;;;;;;;19.47;17.43;;;16.80;99.90;;;;;;4995330;28;20593;-65
2021/06/10 00:52:29;;;;;;;21.07;19.17;;;16.90;99.90;;;;;;4995179;28;21194;-65
2021/06/10 00:54:55;;;;;;;20.80;18.80;;;16.90;99.90;;;;;;4995064;28;20601;-65
2021/06/10 00:57:22;;;;;;;22.20;18.20;;;16.80;99.90;;;;;;4995171;28;20685;-65
2021/06/10 00:59:48;;;;;;;22.10;19.70;;;16.80;99.90;;;;;;4994997;28;20617;-65
2021/06/10 01:02:15;;;;;;;21.63;19.53;;;16.80;99.90;;;;;;4995114;28;20993;-65
2021/06/10 01:04:41;;;;;;;21.27;19.00;;;16.80;99.90;;;;;;4994865;28;20598;-65
2021/06/10 01:07:18;;;;;;;20.73;18.77;;;16.80;99.90;;;;;;4993606;28;20618;-66
2021/06/10 01:10:24;;;;;;;20.07;18.00;;;16.80;99.90;;;;;;4995045;28;20621;-64
2021/06/10 01:13:14;;;;;;;22.80;18.53;;;16.80;99.90;;;;;;4934534;29;20638;-65
2021/06/10 01:15:42;;;;;;;20.77;17.63;;;16.70;99.90;;;;;;4994485;28;21011;-65
2021/06/10 01:18:12;;;;;;;21.63;18.27;;;16.70;99.90;;;;;;4992649;28;21168;-65
2021/06/10 01:20:40;;;;;;;21.50;19.40;;;16.70;99.90;;;;;;4994767;28;20628;-65
2021/06/10 01:23:25;;;;;;;27.77;19.60;;;16.60;99.90;;;;;;4994673;28;20633;-65
2021/06/10 01:26:04;;;;;;;20.50;18.43;;;16.50;99.90;;;;;;4994827;28;20625;-65
2021/06/10 01:28:35;;;;;;;21.13;19.07;;;16.50;99.90;;;;;;4994526;28;21124;-65
2021/06/10 01:31:08;;;;;;;33.70;20.70;;;16.50;99.90;;;;;;4994731;28;20625;-65
2021/06/10 01:33:45;;;;;;;24.13;20.33;;;16.40;99.90;;;;;;4994500;28;21129;-65
2021/06/10 01:36:16;;;;;;;24.23;20.10;;;16.40;99.90;;;;;;4994638;28;20570;-65
2021/06/10 01:38:49;;;;;;;22.87;20.47;;;16.40;99.90;;;;;;4994472;28;20551;-65
2021/06/10 01:41:19;;;;;;;24.53;21.90;;;16.40;99.90;;;;;;4994763;28;21183;-65
2021/06/10 01:43:46;;;;;;;25.00;21.63;;;16.50;99.90;;;;;;4994412;28;20637;-65
2021/06/10 01:46:13;;;;;;;25.93;23.13;;;16.50;99.90;;;;;;4994553;28;20563;-65
2021/06/10 01:48:44;;;;;;;27.47;24.37;;;16.40;99.90;;;;;;4994368;28;21167;-65
2021/06/10 01:51:12;;;;;;;28.07;23.50;;;16.40;99.90;;;;;;4994476;28;20894;-65
2021/06/10 01:53:41;;;;;;;31.57;26.10;;;16.40;99.90;;;;;;4994298;28;20614;-65
2021/06/10 01:56:08;;;;;;;28.20;24.63;;;16.40;99.90;;;;;;4994431;28;20936;-65
2021/06/10 01:58:37;;;;;;;29.73;26.40;;;16.40;99.90;;;;;;4994376;28;20696;-65
2021/06/10 02:01:04;;;;;;;33.73;25.57;;;16.50;99.90;;;;;;4994297;28;20590;-65
2021/06/10 02:03:32;;;;;;;32.13;26.00;;;16.40;99.90;;;;;;4994128;28;20631;-65
2021/06/10 02:06:00;;;;;;;33.67;29.90;;;16.40;99.90;;;;;;4994311;28;20576;-65
2021/06/10 02:08:27;;;;;;;36.37;28.27;;;16.40;99.90;;;;;;4994324;28;21154;-65
2021/06/10 02:10:56;;;;;;;36.53;28.60;;;16.40;99.90;;;;;;4994221;28;20598;-65
2021/06/10 02:13:28;;;;;;;34.90;29.27;;;16.40;99.90;;;;;;4996316;28;20684;-65
2021/06/10 02:15:58;;;;;;;38.77;30.20;;;16.40;99.90;;;;;;5000759;28;20539;-65
2021/06/10 02:18:25;;;;;;;34.50;27.80;;;16.40;99.90;;;;;;5000964;28;20611;-65
2021/06/10 02:20:51;;;;;;;43.87;31.43;;;16.30;99.90;;;;;;5000571;28;20683;-65
2021/06/10 02:23:18;;;;;;;40.70;31.20;;;16.40;99.90;;;;;;5000586;28;20727;-65
2021/06/10 02:25:44;;;;;;;41.20;30.97;;;16.40;99.90;;;;;;5000774;28;20697;-65
2021/06/10 02:28:10;;;;;;;42.53;32.73;;;16.50;99.90;;;;;;5000764;28;20627;-65
2021/06/10 02:30:37;;;;;;;40.10;33.30;;;16.50;99.90;;;;;;5000717;28;20562;-65
2021/06/10 02:33:03;;;;;;;40.33;32.77;;;16.50;99.90;;;;;;5000622;28;20609;-65
2021/06/10 02:35:30;;;;;;;36.80;31.70;;;16.50;99.90;;;;;;5000591;28;20605;-65
2021/06/10 02:38:00;;;;;;;36.20;31.27;;;16.50;99.90;;;;;;5000801;28;20970;-65
2021/06/10 02:40:31;;;;;;;36.10;31.70;;;16.50;99.90;;;;;;5000874;28;20625;-65
2021/06/10 02:43:00;;;;;;;36.40;30.27;;;16.50;99.90;;;;;;5000699;28;21107;-65
2021/06/10 02:45:27;;;;;;;38.13;31.17;;;16.50;99.90;;;;;;5000190;28;20672;-65
2021/06/10 02:47:56;;;;;;;37.70;31.13;;;16.50;99.90;;;;;;5000414;28;20621;-65
2021/06/10 02:50:24;;;;;;;36.67;30.77;;;16.50;99.90;;;;;;5000604;28;21154;-65
2021/06/10 02:52:51;;;;;;;36.43;30.53;;;16.50;99.90;;;;;;5000334;28;20613;-65
2021/06/10 02:55:19;;;;;;;37.00;31.63;;;16.50;99.90;;;;;;5000208;28;20593;-65
2021/06/10 02:57:50;;;;;;;36.20;31.40;;;16.50;99.90;;;;;;5000414;28;20629;-65
2021/06/10 03:00:19;;;;;;;37.60;30.83;;;16.50;99.90;;;;;;4999593;28;20624;-65
2021/06/10 03:02:48;;;;;;;34.30;30.17;;;16.50;99.90;;;;;;4999085;28;20653;-65
2021/06/10 03:05:16;;;;;;;32.93;29.30;;;16.50;99.90;;;;;;4999291;28;20622;-65
2021/06/10 03:07:44;;;;;;;42.40;33.23;;;16.50;99.90;;;;;;4999413;28;20624;-65
2021/06/10 03:10:12;;;;;;;43.40;32.00;;;16.50;99.90;;;;;;4999528;28;20588;-65
2021/06/10 03:12:41;;;;;;;38.77;31.57;;;16.40;99.90;;;;;;4997871;28;20633;-65
2021/06/10 03:15:10;;;;;;;37.73;32.80;;;16.40;99.90;;;;;;4999736;28;20592;-65
2021/06/10 03:17:40;;;;;;;41.10;35.37;;;16.40;99.90;;;;;;4999966;28;20607;-65
2021/06/10 03:20:08;;;;;;;38.57;34.30;;;16.40;99.90;;;;;;5000328;28;20596;-65
2021/06/10 03:22:35;;;;;;;39.17;33.83;;;16.40;99.90;;;;;;4999981;28;21137;-65
2021/06/10 03:25:06;;;;;;;42.13;34.20;;;16.30;99.90;;;;;;4997043;28;20614;-65
2021/06/10 03:27:33;;;;;;;43.40;34.77;;;16.30;99.90;;;;;;4997246;28;21107;-65
2021/06/10 03:30:01;;;;;;;53.80;38.50;;;16.20;99.90;;;;;;4996775;28;20583;-65
2021/06/10 03:32:28;;;;;;;46.53;35.90;;;16.20;99.90;;;;;;4996842;28;20604;-65
2021/06/10 03:34:55;;;;;;;47.20;37.93;;;16.30;99.90;;;;;;4996907;28;20597;-65
2021/06/10 03:37:23;;;;;;;50.47;38.47;;;16.20;99.90;;;;;;4996326;28;20716;-65
2021/06/10 03:39:51;;;;;;;54.10;39.10;;;16.20;99.90;;;;;;4996763;28;20601;-65
2021/06/10 03:42:18;;;;;;;49.30;36.17;;;16.20;99.90;;;;;;4996532;28;20721;-65
2021/06/10 03:44:47;;;;;;;42.80;35.10;;;16.30;99.90;;;;;;4996407;28;20641;-65
2021/06/10 03:47:14;;;;;;;47.30;36.73;;;16.30;99.90;;;;;;4994893;28;20599;-66
2021/06/10 03:49:41;;;;;;;49.73;38.47;;;16.30;99.90;;;;;;4996491;28;20629;-65
2021/06/10 03:52:08;;;;;;;48.87;37.13;;;16.30;99.90;;;;;;4996612;28;20601;-65
2021/06/10 03:54:35;;;;;;;49.07;37.50;;;16.30;99.90;;;;;;4996554;28;20629;-66
2021/06/10 03:57:02;;;;;;;49.70;37.03;;;16.40;99.90;;;;;;4996373;28;20601;-67
2021/06/10 03:59:28;;;;;;;50.33;37.60;;;16.40;99.90;;;;;;4996706;28;20609;-64
2021/06/10 04:01:55;;;;;;;50.77;37.27;;;16.30;99.90;;;;;;4996164;28;20594;-65
2021/06/10 04:04:21;;;;;;;43.47;34.77;;;16.40;99.90;;;;;;4996340;28;20733;-65
2021/06/10 04:06:47;;;;;;;49.47;36.67;;;16.40;99.90;;;;;;4996533;28;20605;-65
2021/06/10 04:09:14;;;;;;;47.00;36.77;;;16.50;99.90;;;;;;4995872;28;20629;-65
2021/06/10 04:11:40;;;;;;;46.67;37.00;;;16.50;99.90;;;;;;4996145;28;20572;-65
2021/06/10 04:14:07;;;;;;;52.27;37.93;;;16.50;99.90;;;;;;4996099;28;20629;-65
2021/06/10 04:16:33;;;;;;;49.40;38.73;;;16.40;99.90;;;;;;4995909;28;20616;-65
2021/06/10 04:18:59;;;;;;;56.50;39.47;;;16.50;99.90;;;;;;4996056;28;21100;-66
2021/06/10 04:21:26;;;;;;;47.80;37.67;;;16.40;99.90;;;;;;4995704;28;20618;-66
2021/06/10 04:23:52;;;;;;;53.63;40.37;;;16.50;99.90;;;;;;4995754;28;20636;-65
2021/06/10 04:26:19;;;;;;;52.07;41.10;;;16.50;99.90;;;;;;4995914;28;21144;-65
2021/06/10 04:28:46;;;;;;;55.60;42.57;;;16.50;99.90;;;;;;4995799;28;20968;-65
2021/06/10 04:31:18;;;;;;;52.13;42.20;;;16.50;99.90;;;;;;4995867;28;20580;-65
2021/06/10 04:33:44;;;;;;;51.67;41.73;;;16.50;99.90;;;;;;4995660;28;20575;-65
2021/06/10 04:36:11;;;;;;;56.80;42.70;;;16.50;99.90;;;;;;4995490;28;20634;-65
2021/06/10 04:38:38;;;;;;;51.70;40.73;;;16.50;99.90;;;;;;4995852;28;20985;-65
2021/06/10 04:41:05;;;;;;;49.33;38.53;;;16.50;99.90;;;;;;4995548;28;20622;-66
2021/06/10 04:43:32;;;;;;;57.60;41.40;;;16.60;99.90;;;;;;4995153;28;20645;-65
2021/06/10 04:45:58;;;;;;;57.13;41.00;;;16.60;99.90;;;;;;4995499;28;21221;-65
2021/06/10 04:48:25;;;;;;;52.30;39.30;;;16.60;99.90;;;;;;4995616;28;20947;-66
2021/06/10 04:50:53;;;;;;;55.83;41.97;;;16.60;99.90;;;;;;4995196;28;20608;-66
2021/06/10 04:53:20;;;;;;;55.47;40.70;;;16.60;99.90;;;;;;4995430;28;20606;-66
2021/06/10 04:55:47;;;;;;;52.23;39.67;;;16.60;99.90;;;;;;4995466;28;20636;-66
2021/06/10 04:58:14;;;;;;;46.07;36.97;;;16.50;99.90;;;;;;4995377;28;20661;-66
2021/06/10 05:00:41;;;;;;;59.43;41.80;;;16.60;99.90;;;;;;4995203;28;20598;-66
2021/06/10 05:03:08;;;;;;;75.37;43.63;;;16.70;99.90;;;;;;4995119;28;20637;-65
2021/06/10 05:05:39;;;;;;;64.63;43.03;;;16.50;99.90;;;;;;4995169;28;20569;-66
2021/06/10 05:08:05;;;;;;;109.40;45.53;;;16.60;99.90;;;;;;4995140;28;20618;-66
2021/06/10 05:10:32;;;;;;;68.07;43.43;;;16.60;99.90;;;;;;4995244;28;20613;-66
2021/06/10 05:12:58;;;;;;;83.63;43.57;;;16.60;99.90;;;;;;4994967;28;20625;-66
2021/06/10 05:15:25;;;;;;;87.33;43.77;;;16.70;99.90;;;;;;4993921;28;20610;-66
2021/06/10 05:17:51;;;;;;;97.30;43.27;;;16.80;99.90;;;;;;4995059;28;20638;-65
2021/06/10 05:20:18;;;;;;;71.80;43.83;;;16.80;99.90;;;;;;4995373;28;21196;-65
2021/06/10 05:22:45;;;;;;;117.90;43.80;;;16.80;99.90;;;;;;4995024;28;20616;-66
2021/06/10 05:25:12;;;;;;;150.90;46.03;;;16.80;99.90;;;;;;4995141;28;20590;-66
2021/06/10 05:27:38;;;;;;;72.73;42.97;;;16.70;99.90;;;;;;4994851;28;20618;-66
2021/06/10 05:30:06;;;;;;;121.17;44.00;;;16.90;99.90;;;;;;4994875;28;21159;-65
2021/06/10 05:32:32;;;;;;;76.03;41.73;;;16.90;99.90;;;;;;4995226;28;20605;-66
2021/06/10 05:34:59;;;;;;;68.43;43.43;;;16.80;99.90;;;;;;4994538;28;20978;-66
2021/06/10 05:37:25;;;;;;;126.83;43.93;;;17.00;99.90;;;;;;4994464;28;20597;-66
2021/06/10 05:39:51;;;;;;;85.90;41.57;;;17.00;99.90;;;;;;4993101;28;20621;-66
2021/06/10 05:42:18;;;;;;;64.37;41.93;;;17.10;99.90;;;;;;4994215;28;20988;-66
2021/06/10 05:44:44;;;;;;;56.87;41.33;;;17.10;99.90;;;;;;4993914;28;20715;-66
2021/06/10 05:47:11;;;;;;;59.57;38.60;;;17.20;99.90;;;;;;4994061;28;20608;-66
2021/06/10 05:49:38;;;;;;;54.13;38.30;;;17.20;99.90;;;;;;4993846;28;20622;-66
2021/06/10 05:52:05;;;;;;;42.37;34.90;;;17.30;99.90;;;;;;4994048;28;20610;-66
2021/06/10 05:54:31;;;;;;;49.80;36.47;;;17.40;99.90;;;;;;4993929;28;20975;-66
2021/06/10 05:57:01;;;;;;;74.27;39.00;;;17.20;99.90;;;;;;4994308;28;21154;-66
2021/06/10 05:59:27;;;;;;;48.57;39.30;;;17.00;99.90;;;;;;4994079;28;20602;-66
2021/06/10 06:01:54;;;;;;;48.33;38.87;;;17.20;99.90;;;;;;4994259;28;20597;-66
2021/06/10 06:04:20;;;;;;;53.60;38.90;;;17.50;99.90;;;;;;4994174;28;20654;-66
2021/06/10 06:06:47;;;;;;;42.80;33.87;;;17.40;99.90;;;;;;4993484;28;20618;-66
2021/06/10 06:09:15;;;;;;;37.90;33.60;;;17.60;99.90;;;;;;4993865;28;20947;-66
2021/06/10 06:11:41;;;;;;;37.63;31.63;;;17.90;99.90;;;;;;4993989;28;20618;-66
2021/06/10 06:14:09;;;;;;;41.47;35.07;;;17.90;99.90;;;;;;4993799;28;20602;-66
2021/06/10 06:16:42;;;;;;;38.10;33.53;;;17.60;99.90;;;;;;4993863;28;20604;-66
2021/06/10 06:19:12;;;;;;;40.80;34.50;;;17.70;99.90;;;;;;4993831;28;20568;-66
2021/06/10 06:21:40;;;;;;;37.90;32.57;;;17.90;99.90;;;;;;4994222;28;20622;-66
2021/06/10 06:24:08;;;;;;;36.70;31.60;;;18.20;99.90;;;;;;4992323;28;20752;-66
2021/06/10 06:26:35;;;;;;;34.13;30.33;;;18.30;99.90;;;;;;4993657;28;21141;-66
2021/06/10 06:29:04;;;;;;;33.90;30.33;;;18.50;99.90;;;;;;4993831;28;20630;-66
2021/06/10 06:31:31;;;;;;;34.33;30.83;;;18.60;99.90;;;;;;4993710;28;20632;-65
2021/06/10 06:33:58;;;;;;;35.23;31.53;;;18.60;99.90;;;;;;4993829;28;20623;-67
2021/06/10 06:36:25;;;;;;;34.37;30.67;;;18.60;99.90;;;;;;4993852;28;20602;-67
2021/06/10 06:38:52;;;;;;;32.90;29.40;;;18.60;99.90;;;;;;4993527;28;20612;-67
2021/06/10 06:41:19;;;;;;;30.47;27.30;;;18.80;99.90;;;;;;4993480;28;20974;-66
2021/06/10 06:43:45;;;;;;;32.50;28.93;;;18.70;99.90;;;;;;4993441;28;20752;-65
2021/06/10 06:46:11;;;;;;;32.30;28.93;;;18.60;99.90;;;;;;4992403;28;20937;-66
2021/06/10 06:48:38;;;;;;;31.37;28.07;;;18.60;99.90;;;;;;4993773;28;20624;-66
2021/06/10 06:51:06;;;;;;;31.43;28.33;;;18.70;99.90;;;;;;4993058;28;20625;-66
2021/06/10 06:53:32;;;;;;;30.77;27.77;;;18.80;99.90;;;;;;4993199;28;21172;-66
2021/06/10 06:56:00;;;;;;;31.13;27.90;;;19.00;99.90;;;;;;4993392;28;21129;-66
2021/06/10 06:58:30;;;;;;;30.03;26.83;;;19.10;99.90;;;;;;4992369;28;20685;-66
2021/06/10 07:00:57;;;;;;;32.10;28.23;;;19.20;99.90;;;;;;4997005;28;20582;-66
2021/06/10 07:03:24;;;;;;;31.33;28.23;;;19.20;99.90;;;;;;4997116;28;20637;-66
2021/06/10 07:05:53;;;;;;;29.87;26.97;;;19.30;99.90;;;;;;4996745;28;20648;-66
2021/06/10 07:08:28;;;;;;;27.60;24.90;;;19.60;99.90;;;;;;4997059;28;20570;-67
2021/06/10 07:10:56;;;;;;;29.93;26.73;;;19.80;99.90;;;;;;4996745;28;20991;-67
2021/06/10 07:13:23;;;;;;;27.33;24.60;;;19.80;99.90;;;;;;4996631;28;20637;-67
2021/06/10 07:15:53;;;;;;;25.33;22.83;;;20.10;99.90;;;;;;4997122;28;20592;-66
2021/06/10 07:18:20;;;;;;;25.60;23.10;;;20.10;99.90;;;;;;4996954;28;21006;-67
2021/06/10 07:20:47;;;;;;;26.03;23.33;;;20.50;99.90;;;;;;4996785;28;20621;-66
2021/06/10 07:23:13;;;;;;;26.13;23.80;;;20.70;99.90;;;;;;4996590;28;20998;-66
2021/06/10 07:25:40;;;;;;;26.63;24.00;;;20.70;99.90;;;;;;4996477;28;20622;-65
2021/06/10 07:28:09;;;;;;;24.93;22.73;;;21.20;99.90;;;;;;4995174;28;20621;-66
2021/06/10 07:30:36;;;;;;;26.80;24.03;;;20.90;99.90;;;;;;4996619;28;20598;-65
2021/06/10 07:33:03;;;;;;;26.67;23.50;;;21.10;99.90;;;;;;4995017;28;20991;-65
2021/06/10 07:35:33;;;;;;;25.27;22.97;;;21.30;99.90;;;;;;4996448;28;20629;-65
2021/06/10 07:38:01;;;;;;;23.23;21.10;;;21.70;99.90;;;;;;4996228;28;20751;-65
2021/06/10 07:40:29;;;;;;;25.57;23.13;;;21.70;99.90;;;;;;4996506;28;21164;-66
2021/06/10 07:42:56;;;;;;;24.80;22.30;;;22.00;99.90;;;;;;4996610;28;20636;-65
2021/06/10 07:45:25;;;;;;;25.03;22.90;;;22.10;99.90;;;;;;4995872;28;20671;-65
2021/06/10 07:47:52;;;;;;;24.43;22.13;;;22.40;99.90;;;;;;4995928;28;20981;-65
2021/06/10 07:50:18;;;;;;;24.67;22.27;;;22.40;99.90;;;;;;4996171;28;20983;-65
2021/06/10 07:52:44;;;;;;;25.07;22.87;;;22.40;99.90;;;;;;4996436;28;20617;-66
2021/06/10 07:55:11;;;;;;;24.43;22.23;;;22.30;99.90;;;;;;4995315;28;20629;-65
2021/06/10 07:57:37;;;;;;;24.33;22.13;;;22.20;99.90;;;;;;4996333;28;20578;-65
2021/06/10 08:00:05;;;;;;;22.40;20.50;;;22.40;99.90;;;;;;4996234;28;20616;-65
2021/06/10 08:02:32;;;;;;;26.33;23.90;;;22.70;99.90;;;;;;4996183;28;20912;-66
2021/06/10 08:05:00;;;;;;;23.93;21.83;;;22.80;99.90;;;;;;4996201;28;20672;-65
2021/06/10 08:07:26;;;;;;;24.57;22.27;;;23.20;99.90;;;;;;4995977;28;20593;-66
2021/06/10 08:09:53;;;;;;;25.80;23.17;;;22.90;99.90;;;;;;4994814;28;20930;-66
2021/06/10 08:12:21;;;;;;;26.90;24.30;;;22.30;99.90;;;;;;4995162;28;20598;-66
2021/06/10 08:14:48;;;;;;;25.40;23.10;;;22.40;99.90;;;;;;4995740;28;20633;-66
2021/06/10 08:17:15;;;;;;;26.93;24.47;;;22.30;99.90;;;;;;4994376;28;20640;-66
2021/06/10 08:19:41;;;;;;;25.03;22.67;;;22.40;99.90;;;;;;4995912;28;20605;-66
2021/06/10 08:22:07;;;;;;;26.13;23.83;;;22.60;99.90;;;;;;4995630;28;20629;-66
2021/06/10 08:24:34;;;;;;;23.80;21.40;;;22.70;99.90;;;;;;4995604;28;20629;-66
2021/06/10 08:27:00;;;;;;;25.03;22.50;;;22.80;99.90;;;;;;4995752;28;20613;-67
2021/06/10 08:29:28;;;;;;;25.77;23.07;;;23.10;99.90;;;;;;4995565;28;20953;-67
2021/06/10 08:31:55;;;;;;;52.93;43.83;;;22.70;99.90;;;;;;4994172;28;20637;-67
2021/06/10 08:34:22;;;;;;;27.17;24.53;;;22.60;99.90;;;;;;4995418;28;20692;-67
2021/06/10 08:36:52;;;;;;;26.33;23.63;;;23.20;99.90;;;;;;4993919;28;21152;-67
2021/06/10 08:39:18;;;;;;;24.97;22.63;;;23.20;99.90;;;;;;4994868;28;21002;-67
2021/06/10 08:41:45;;;;;;;23.93;21.73;;;23.40;63.80;;;;;;4994905;28;20649;-66
2021/06/10 08:44:12;;;;;;;23.17;21.03;;;23.60;83.50;;;;;;4994741;28;20667;-66
2021/06/10 08:46:47;;;;;;;22.50;20.50;;;23.60;66.20;;;;;;4994987;28;20598;-67
2021/06/10 08:49:19;;;;;;;21.90;19.90;;;24.30;27.10;;;;;;4994891;28;20562;-66
2021/06/10 08:51:48;;;;;;;20.60;18.90;;;24.30;1.00;;;;;;4995077;28;20562;-66
2021/06/10 08:54:15;;;;;;;21.17;19.27;;;24.20;11.60;;;;;;4994963;28;21141;-66
2021/06/10 08:56:43;;;;;;;21.10;19.20;;;24.40;1.00;;;;;;4995118;28;20601;-66
2021/06/10 08:59:09;;;;;;;22.30;20.37;;;24.90;1.00;;;;;;4994893;28;20621;-66
2021/06/10 09:01:37;;;;;;;20.40;18.60;;;24.80;1.00;;;;;;4995220;28;20721;-66
2021/06/10 09:04:04;;;;;;;19.40;17.63;;;25.00;1.00;;;;;;4980935;28;20647;-65
2021/06/10 09:06:52;;;;;;;20.53;18.73;;;25.10;1.00;;;;;;4989547;28;20638;-65
2021/06/10 09:09:42;;;;;;;19.13;17.53;;;25.20;1.00;;;;;;4989140;28;20721;-66
2021/06/10 09:12:11;;;;;;;20.00;18.20;;;24.80;1.00;;;;;;4994178;28;20629;-66
2021/06/10 09:15:03;;;;;;;20.23;18.23;;;24.90;1.00;;;;;;4994026;28;20634;-66
2021/06/10 09:17:31;;;;;;;19.80;17.90;;;25.00;1.00;;;;;;4987404;28;20648;-66
2021/06/10 09:19:58;;;;;;;19.33;17.57;;;25.20;1.00;;;;;;4993959;28;20630;-66
2021/06/10 09:22:28;;;;;;;18.73;17.23;;;25.20;1.00;;;;;;4993733;28;20598;-66
2021/06/10 09:25:10;;;;;;;19.03;17.53;;;25.20;1.00;;;;;;4994522;28;20656;-66
2021/06/10 09:27:58;;;;;;;21.30;18.37;;;25.30;1.00;;;;;;4994436;28;20697;-66
2021/06/10 09:30:50;;;;;;;18.17;16.27;;;25.30;1.00;;;;;;4994713;28;20592;-66
2021/06/10 09:33:20;;;;;;;18.67;17.17;;;25.60;1.00;;;;;;4992917;28;20652;-66
2021/06/10 09:35:46;;;;;;;18.87;17.20;;;25.60;1.00;;;;;;4992812;28;20620;-66
2021/06/10 09:38:19;;;;;;;18.77;16.97;;;25.80;1.00;;;;;;4994294;28;20597;-66
2021/06/10 09:40:47;;;;;;;20.10;18.13;;;25.40;1.00;;;;;;4994308;28;20672;-66
2021/06/10 09:43:15;;;;;;;18.77;17.07;;;25.80;1.00;;;;;;4980085;28;20714;-66
2021/06/10 09:45:43;;;;;;;19.13;17.33;;;25.80;1.00;;;;;;4992710;28;20676;-66
2021/06/10 09:48:09;;;;;;;18.93;17.13;;;25.90;1.00;;;;;;4993359;28;20618;-66
2021/06/10 09:50:41;;;;;;;18.80;16.83;;;26.00;1.00;;;;;;4993844;28;21104;-66
2021/06/10 09:53:15;;;;;;;21.63;19.60;;;26.10;1.00;;;;;;4992192;28;20677;-67
2021/06/10 09:55:52;;;;;;;20.87;19.17;;;25.50;1.00;;;;;;4993469;28;21158;-67
2021/06/10 09:58:21;;;;;;;19.73;18.13;;;25.20;1.00;;;;;;4980850;28;20594;-67
2021/06/10 10:00:50;;;;;;;19.20;17.20;;;25.60;1.00;;;;;;4992794;28;20625;-67
2021/06/10 10:03:23;;;;;;;21.97;19.67;;;26.10;1.00;;;;;;4993992;28;21111;-67
2021/06/10 10:05:51;;;;;;;22.97;17.50;;;26.20;1.00;;;;;;4992997;28;20669;-67
2021/06/10 10:08:18;;;;;;;18.57;16.97;;;26.20;1.00;;;;;;4993315;28;20626;-67
2021/06/10 10:10:45;;;;;;;17.50;16.00;;;25.40;1.00;;;;;;4993298;28;20626;-67
2021/06/10 10:13:15;;;;;;;21.27;18.10;;;25.60;1.00;;;;;;4993520;28;20620;-66
2021/06/10 10:15:43;;;;;;;16.63;15.33;;;26.00;1.00;;;;;;4993605;28;21198;-66
2021/06/10 10:18:12;;;;;;;30.60;24.70;;;26.30;1.00;;;;;;4993719;28;21137;-66
2021/06/10 10:20:40;;;;;;;16.57;15.00;;;26.20;1.00;;;;;;4992476;28;20648;-66
2021/06/10 10:23:07;;;;;;;17.47;15.87;;;26.60;1.00;;;;;;4993645;28;20620;-66
2021/06/10 10:25:34;;;;;;;17.90;16.13;;;26.70;1.00;;;;;;4993678;28;20657;-66
2021/06/10 10:28:02;;;;;;;16.27;14.83;;;26.90;1.00;;;;;;4993749;28;20622;-66
2021/06/10 10:30:29;;;;;;;16.73;15.13;;;26.90;1.00;;;;;;4993718;28;21124;-66
2021/06/10 10:32:56;;;;;;;16.37;14.73;;;26.60;1.00;;;;;;4984720;28;20621;-66
2021/06/10 10:35:22;;;;;;;17.23;15.70;;;26.50;1.00;;;;;;4990725;28;21231;-66
2021/06/10 10:37:50;;;;;;;15.60;14.10;;;26.70;1.00;;;;;;4997205;28;20983;-66
2021/06/10 10:40:25;;;;;;;17.50;15.53;;;26.70;1.00;;;;;;4996967;28;20652;-66
2021/06/10 10:42:52;;;;;;;16.23;14.83;;;27.00;1.00;;;;;;4984408;28;20621;-66
2021/06/10 10:45:27;;;;;;;15.70;14.50;;;27.20;99.90;;;;;;4996904;28;20675;-66
2021/06/10 10:48:00;;;;;;;16.13;14.80;;;27.70;99.90;;;;;;4983239;28;20588;-66
2021/06/10 10:50:35;;;;;;;15.43;14.13;;;27.10;99.90;;;;;;4997253;28;20952;-66
2021/06/10 10:53:02;;;;;;;14.80;13.30;;;27.60;99.90;;;;;;4997012;28;20988;-66
2021/06/10 10:55:30;;;;;;;15.57;14.20;;;28.10;99.90;;;;;;4997180;28;20984;-67
2021/06/10 10:58:06;;;;;;;22.63;20.43;;;28.10;99.90;;;;;;4996198;28;20641;-67
2021/06/10 11:01:02;;;;;;;15.50;14.23;;;28.20;99.90;;;;;;4996738;28;20615;-67
2021/06/10 11:03:31;;;;;;;15.10;14.00;;;28.20;99.90;;;;;;4972993;28;21068;-66
2021/06/10 11:06:18;;;;;;;15.63;14.33;;;27.40;99.90;;;;;;4996711;28;20748;-66
2021/06/10 11:09:06;;;;;;;16.37;14.77;;;27.20;99.90;;;;;;4989418;28;20629;-66
2021/06/10 11:11:52;;;;;;;15.03;13.63;;;26.80;99.90;;;;;;4992185;28;20622;-66
2021/06/10 11:14:51;;;;;;;18.90;13.63;;;27.70;99.90;;;;;;4997002;28;20598;-66
2021/06/10 11:17:20;;;;;;;14.47;13.27;;;28.40;99.90;;;;;;4984078;28;20584;-66
2021/06/10 11:20:06;;;;;;;16.43;15.07;;;29.20;99.90;;;;;;4996909;28;20980;-66
2021/06/10 11:22:39;;;;;;;15.93;14.60;;;28.60;99.90;;;;;;4985727;28;20656;-66
2021/06/10 11:25:17;;;;;;;16.33;15.03;;;28.90;99.90;;;;;;4996513;28;20668;-66
2021/06/10 11:27:44;;;;;;;15.67;14.47;;;29.30;99.90;;;;;;4996249;28;20587;-66
2021/06/10 11:30:22;;;;;;;13.80;12.80;;;29.80;99.90;;;;;;4996325;28;20622;-66
2021/06/10 11:33:03;;;;;;;11.67;10.57;;;30.20;99.90;;;;;;4996003;28;20992;-66
2021/06/10 11:35:38;;;;;;;13.83;8.80;;;28.40;99.90;;;;;;4995722;28;21011;-66
2021/06/10 11:38:10;;;;;;;9.27;8.67;;;27.80;99.90;;;;;;4996006;28;20617;-66
2021/06/10 11:40:38;;;;;;;10.00;8.93;;;27.80;99.90;;;;;;4988443;28;20674;-67
2021/06/10 11:43:10;;;;;;;10.33;8.73;;;27.70;99.90;;;;;;4977010;28;20700;-66
2021/06/10 11:45:37;;;;;;;9.70;9.00;;;28.20;99.90;;;;;;4975794;28;20672;-67
2021/06/10 11:48:03;;;;;;;10.30;9.50;;;29.10;99.90;;;;;;4976808;28;21133;-67
2021/06/10 11:50:42;;;;;;;8.70;7.90;;;29.60;99.90;;;;;;4976862;28;20653;-67
2021/06/10 11:53:17;;;;;;;8.87;7.93;;;29.00;99.90;;;;;;4976784;28;20547;-67
2021/06/10 11:55:46;;;;;;;8.63;8.10;;;29.10;57.10;;;;;;4976854;28;20614;-67
2021/06/10 11:58:15;;;;;;;11.30;9.70;;;30.30;72.20;;;;;;4976552;28;20657;-66
2021/06/10 12:00:49;;;;;;;10.40;9.50;;;29.90;51.20;;;;;;4977709;28;20599;-67
2021/06/10 12:03:16;;;;;;;9.50;8.90;;;30.60;52.40;;;;;;4976554;28;20642;-67
2021/06/10 12:05:52;;;;;;;10.73;9.93;;;30.50;30.90;;;;;;4975310;28;20662;-66
2021/06/10 12:08:25;;;;;;;11.17;10.27;;;30.40;14.10;;;;;;4976523;28;20574;-66
2021/06/10 12:10:58;;;;;;;12.73;10.50;;;30.50;30.40;;;;;;4974909;28;21021;-65
2021/06/10 12:13:32;;;;;;;11.53;10.37;;;30.20;23.50;;;;;;4976492;28;21184;-65
2021/06/10 12:16:01;;;;;;;11.17;10.13;;;30.00;3.80;;;;;;4976420;28;20618;-65
2021/06/10 12:18:28;;;;;;;9.90;9.20;;;30.50;42.70;;;;;;4976157;28;20651;-65
2021/06/10 12:21:07;;;;;;;11.50;10.70;;;31.50;99.90;;;;;;4976512;28;20604;-65
2021/06/10 12:23:36;;;;;;;12.73;10.33;;;29.80;1.00;;;;;;4976224;28;20598;-65
2021/06/10 12:26:10;;;;;;;12.80;11.83;;;30.70;19.40;;;;;;4975793;28;21251;-65
2021/06/10 12:28:40;;;;;;;11.13;10.43;;;32.10;99.90;;;;;;4976409;28;21157;-65
2021/06/10 12:31:15;;;;;;;11.33;10.47;;;31.40;99.90;;;;;;4975674;28;20642;-65
2021/06/10 12:33:53;;;;;;;12.13;10.77;;;30.40;6.10;;;;;;4976189;28;20547;-65
2021/06/10 12:36:24;;;;;;;10.90;10.20;;;30.20;45.20;;;;;;4976018;28;20575;-66
2021/06/10 12:39:13;;;;;;;8.13;7.40;;;32.00;99.90;;;;;;4975898;28;20599;-65